sensor_id;sensor_type;location;lat;lon;timestamp;P1;durP1;ratioP1;P2;durP2;ratioP2
68365;SDS011;55283;51.466;5.478;2022-07-29T00:02:14;1.60;;;1.20;;
68365;SDS011;55283;51.466;5.478;2022-07-29T00:04:42;2.67;;;1.40;;
68365;SDS011;55283;51.466;5.478;2022-07-29T00:07:07;3.70;;;1.20;;
68365;SDS011;55283;51.466;5.478;2022-07-29T00:09:32;3.40;;;1.55;;
68365;SDS011;55283;51.466;5.478;2022-07-29T00:12:01;2.83;;;1.20;;
68365;SDS011;55283;51.466;5.478;2022-07-29T00:14:27;1.70;;;1.30;;
68365;SDS011;55283;51.466;5.478;2022-07-29T00:16:52;2.75;;;1.13;;
68365;SDS011;55283;51.466;5.478;2022-07-29T00:19:18;2.33;;;1.20;;
68365;SDS011;55283;51.466;5.478;2022-07-29T00:21:43;1.50;;;1.17;;
68365;SDS011;55283;51.466;5.478;2022-07-29T00:24:09;2.67;;;1.30;;
68365;SDS011;55283;51.466;5.478;2022-07-29T00:26:34;3.80;;;1.37;;
68365;SDS011;55283;51.466;5.478;2022-07-29T00:29:00;2.33;;;1.40;;
68365;SDS011;55283;51.466;5.478;2022-07-29T00:31:26;3.23;;;1.50;;
68365;SDS011;55283;51.466;5.478;2022-07-29T00:33:54;2.17;;;1.10;;
68365;SDS011;55283;51.466;5.478;2022-07-29T00:36:19;2.88;;;1.30;;
68365;SDS011;55283;51.466;5.478;2022-07-29T00:38:51;3.72;;;1.20;;
68365;SDS011;55283;51.466;5.478;2022-07-29T00:41:19;3.50;;;1.27;;
68365;SDS011;55283;51.466;5.478;2022-07-29T00:43:45;2.47;;;1.20;;
68365;SDS011;55283;51.466;5.478;2022-07-29T00:46:10;2.03;;;1.20;;
68365;SDS011;55283;51.466;5.478;2022-07-29T00:48:39;4.20;;;1.38;;
68365;SDS011;55283;51.466;5.478;2022-07-29T00:51:05;2.10;;;1.17;;
68365;SDS011;55283;51.466;5.478;2022-07-29T00:53:32;3.03;;;1.42;;
68365;SDS011;55283;51.466;5.478;2022-07-29T00:55:59;3.27;;;1.30;;
68365;SDS011;55283;51.466;5.478;2022-07-29T00:58:25;3.83;;;1.30;;
68365;SDS011;55283;51.466;5.478;2022-07-29T01:00:51;1.65;;;1.30;;
68365;SDS011;55283;51.466;5.478;2022-07-29T01:03:19;2.22;;;1.40;;
68365;SDS011;55283;51.466;5.478;2022-07-29T01:05:45;2.80;;;1.60;;
68365;SDS011;55283;51.466;5.478;2022-07-29T01:08:11;3.10;;;1.80;;
68365;SDS011;55283;51.466;5.478;2022-07-29T01:10:39;3.10;;;1.90;;
68365;SDS011;55283;51.466;5.478;2022-07-29T01:13:06;4.55;;;2.15;;
68365;SDS011;55283;51.466;5.478;2022-07-29T01:15:34;3.45;;;2.35;;
68365;SDS011;55283;51.466;5.478;2022-07-29T01:18:09;4.33;;;2.00;;
68365;SDS011;55283;51.466;5.478;2022-07-29T01:31:09;3.72;;;2.00;;
68365;SDS011;55283;51.466;5.478;2022-07-29T01:33:38;3.20;;;2.00;;
68365;SDS011;55283;51.466;5.478;2022-07-29T01:36:18;3.90;;;1.90;;
68365;SDS011;55283;51.466;5.478;2022-07-29T01:42:50;3.55;;;1.90;;
68365;SDS011;55283;51.466;5.478;2022-07-29T01:45:12;3.70;;;1.70;;
68365;SDS011;55283;51.466;5.478;2022-07-29T01:47:54;3.70;;;1.90;;
68365;SDS011;55283;51.466;5.478;2022-07-29T01:50:28;2.47;;;1.70;;
68365;SDS011;55283;51.466;5.478;2022-07-29T01:53:04;2.80;;;1.60;;
68365;SDS011;55283;51.466;5.478;2022-07-29T01:55:33;4.05;;;1.65;;
68365;SDS011;55283;51.466;5.478;2022-07-29T01:58:03;2.17;;;1.67;;
68365;SDS011;55283;51.466;5.478;2022-07-29T02:00:31;3.53;;;1.57;;
68365;SDS011;55283;51.466;5.478;2022-07-29T02:02:59;2.90;;;1.73;;
68365;SDS011;55283;51.466;5.478;2022-07-29T02:05:29;2.45;;;1.60;;
68365;SDS011;55283;51.466;5.478;2022-07-29T02:07:57;3.42;;;1.90;;
68365;SDS011;55283;51.466;5.478;2022-07-29T02:10:26;3.77;;;1.70;;
68365;SDS011;55283;51.466;5.478;2022-07-29T02:12:54;3.05;;;1.77;;
68365;SDS011;55283;51.466;5.478;2022-07-29T02:15:22;4.78;;;1.60;;
68365;SDS011;55283;51.466;5.478;2022-07-29T02:17:54;3.80;;;1.70;;
68365;SDS011;55283;51.466;5.478;2022-07-29T02:20:23;3.22;;;1.52;;
68365;SDS011;55283;51.466;5.478;2022-07-29T02:22:51;3.92;;;1.52;;
68365;SDS011;55283;51.466;5.478;2022-07-29T02:25:18;3.77;;;1.80;;
68365;SDS011;55283;51.466;5.478;2022-07-29T02:27:44;2.45;;;1.40;;
68365;SDS011;55283;51.466;5.478;2022-07-29T02:30:12;2.83;;;1.67;;
68365;SDS011;55283;51.466;5.478;2022-07-29T02:32:41;2.20;;;1.52;;
68365;SDS011;55283;51.466;5.478;2022-07-29T02:35:08;4.37;;;1.53;;
68365;SDS011;55283;51.466;5.478;2022-07-29T02:37:36;3.97;;;1.60;;
68365;SDS011;55283;51.466;5.478;2022-07-29T02:40:02;3.08;;;1.67;;
68365;SDS011;55283;51.466;5.478;2022-07-29T02:42:28;4.80;;;1.83;;
68365;SDS011;55283;51.466;5.478;2022-07-29T02:44:55;3.20;;;1.60;;
68365;SDS011;55283;51.466;5.478;2022-07-29T02:47:37;4.82;;;1.67;;
68365;SDS011;55283;51.466;5.478;2022-07-29T02:50:13;4.30;;;1.40;;
68365;SDS011;55283;51.466;5.478;2022-07-29T02:52:52;2.30;;;1.25;;
68365;SDS011;55283;51.466;5.478;2022-07-29T02:56:23;3.03;;;1.50;;
68365;SDS011;55283;51.466;5.478;2022-07-29T03:00:55;3.60;;;1.60;;
68365;SDS011;55283;51.466;5.478;2022-07-29T03:03:23;3.95;;;1.60;;
68365;SDS011;55283;51.466;5.478;2022-07-29T03:05:56;2.83;;;1.50;;
68365;SDS011;55283;51.466;5.478;2022-07-29T03:08:22;1.77;;;1.33;;
68365;SDS011;55283;51.466;5.478;2022-07-29T03:10:49;2.67;;;1.40;;
68365;SDS011;55283;51.466;5.478;2022-07-29T03:13:16;2.38;;;1.40;;
68365;SDS011;55283;51.466;5.478;2022-07-29T03:15:43;2.53;;;1.50;;
68365;SDS011;55283;51.466;5.478;2022-07-29T03:18:09;3.80;;;1.48;;
68365;SDS011;55283;51.466;5.478;2022-07-29T03:20:35;3.58;;;1.40;;
68365;SDS011;55283;51.466;5.478;2022-07-29T03:23:02;2.27;;;1.40;;
68365;SDS011;55283;51.466;5.478;2022-07-29T03:25:27;4.20;;;1.40;;
68365;SDS011;55283;51.466;5.478;2022-07-29T03:27:53;2.17;;;1.30;;
68365;SDS011;55283;51.466;5.478;2022-07-29T03:30:21;1.93;;;1.37;;
68365;SDS011;55283;51.466;5.478;2022-07-29T03:32:48;2.65;;;1.40;;
68365;SDS011;55283;51.466;5.478;2022-07-29T03:35:14;3.08;;;1.40;;
68365;SDS011;55283;51.466;5.478;2022-07-29T03:37:41;2.83;;;1.40;;
68365;SDS011;55283;51.466;5.478;2022-07-29T03:40:07;2.58;;;1.40;;
68365;SDS011;55283;51.466;5.478;2022-07-29T03:42:35;2.42;;;1.40;;
68365;SDS011;55283;51.466;5.478;2022-07-29T03:45:08;2.63;;;1.48;;
68365;SDS011;55283;51.466;5.478;2022-07-29T03:47:38;4.03;;;1.30;;
68365;SDS011;55283;51.466;5.478;2022-07-29T03:50:07;2.50;;;1.20;;
68365;SDS011;55283;51.466;5.478;2022-07-29T03:52:35;3.28;;;1.25;;
68365;SDS011;55283;51.466;5.478;2022-07-29T03:55:02;3.03;;;1.50;;
68365;SDS011;55283;51.466;5.478;2022-07-29T03:57:28;1.67;;;1.30;;
68365;SDS011;55283;51.466;5.478;2022-07-29T03:59:55;3.03;;;1.52;;
68365;SDS011;55283;51.466;5.478;2022-07-29T04:02:22;3.33;;;1.40;;
68365;SDS011;55283;51.466;5.478;2022-07-29T04:04:48;2.25;;;1.45;;
68365;SDS011;55283;51.466;5.478;2022-07-29T04:07:14;2.93;;;1.30;;
68365;SDS011;55283;51.466;5.478;2022-07-29T04:09:40;2.33;;;1.20;;
68365;SDS011;55283;51.466;5.478;2022-07-29T04:12:06;1.90;;;1.40;;
68365;SDS011;55283;51.466;5.478;2022-07-29T04:14:32;4.83;;;1.40;;
68365;SDS011;55283;51.466;5.478;2022-07-29T04:16:59;2.35;;;1.30;;
68365;SDS011;55283;51.466;5.478;2022-07-29T04:19:29;2.40;;;1.40;;
68365;SDS011;55283;51.466;5.478;2022-07-29T04:21:55;2.28;;;1.40;;
68365;SDS011;55283;51.466;5.478;2022-07-29T04:24:21;5.07;;;1.40;;
68365;SDS011;55283;51.466;5.478;2022-07-29T04:26:47;3.33;;;1.40;;
68365;SDS011;55283;51.466;5.478;2022-07-29T04:29:12;2.78;;;1.50;;
68365;SDS011;55283;51.466;5.478;2022-07-29T04:31:39;2.72;;;1.52;;
68365;SDS011;55283;51.466;5.478;2022-07-29T04:34:07;2.50;;;1.53;;
68365;SDS011;55283;51.466;5.478;2022-07-29T04:36:33;2.10;;;1.40;;
68365;SDS011;55283;51.466;5.478;2022-07-29T04:38:59;1.97;;;1.40;;
68365;SDS011;55283;51.466;5.478;2022-07-29T04:41:26;2.38;;;1.40;;
68365;SDS011;55283;51.466;5.478;2022-07-29T04:43:52;2.58;;;1.38;;
68365;SDS011;55283;51.466;5.478;2022-07-29T04:46:17;2.57;;;1.40;;
68365;SDS011;55283;51.466;5.478;2022-07-29T04:48:44;3.70;;;1.53;;
68365;SDS011;55283;51.466;5.478;2022-07-29T04:51:10;4.40;;;1.60;;
68365;SDS011;55283;51.466;5.478;2022-07-29T04:53:35;3.53;;;1.53;;
68365;SDS011;55283;51.466;5.478;2022-07-29T04:56:01;2.10;;;1.37;;
68365;SDS011;55283;51.466;5.478;2022-07-29T04:58:27;4.22;;;1.60;;
68365;SDS011;55283;51.466;5.478;2022-07-29T05:00:52;2.07;;;1.40;;
68365;SDS011;55283;51.466;5.478;2022-07-29T05:03:21;2.70;;;1.30;;
68365;SDS011;55283;51.466;5.478;2022-07-29T05:05:46;2.60;;;1.60;;
68365;SDS011;55283;51.466;5.478;2022-07-29T05:08:12;5.10;;;1.77;;
68365;SDS011;55283;51.466;5.478;2022-07-29T05:10:37;2.25;;;1.40;;
68365;SDS011;55283;51.466;5.478;2022-07-29T05:13:05;3.67;;;1.40;;
68365;SDS011;55283;51.466;5.478;2022-07-29T05:15:32;3.17;;;1.63;;
68365;SDS011;55283;51.466;5.478;2022-07-29T05:17:58;2.05;;;1.27;;
68365;SDS011;55283;51.466;5.478;2022-07-29T05:20:23;4.67;;;1.60;;
68365;SDS011;55283;51.466;5.478;2022-07-29T05:22:53;3.28;;;1.65;;
68365;SDS011;55283;51.466;5.478;2022-07-29T05:25:19;2.42;;;1.40;;
68365;SDS011;55283;51.466;5.478;2022-07-29T05:27:44;2.40;;;1.40;;
68365;SDS011;55283;51.466;5.478;2022-07-29T05:30:10;2.10;;;1.47;;
68365;SDS011;55283;51.466;5.478;2022-07-29T05:32:35;4.45;;;1.50;;
68365;SDS011;55283;51.466;5.478;2022-07-29T05:35:01;2.80;;;1.40;;
68365;SDS011;55283;51.466;5.478;2022-07-29T05:37:26;4.27;;;1.30;;
68365;SDS011;55283;51.466;5.478;2022-07-29T05:39:54;2.57;;;1.40;;
68365;SDS011;55283;51.466;5.478;2022-07-29T05:42:19;3.85;;;1.30;;
68365;SDS011;55283;51.466;5.478;2022-07-29T05:44:45;2.07;;;1.40;;
68365;SDS011;55283;51.466;5.478;2022-07-29T05:47:10;2.40;;;1.37;;
68365;SDS011;55283;51.466;5.478;2022-07-29T05:49:36;7.35;;;1.50;;
68365;SDS011;55283;51.466;5.478;2022-07-29T05:52:01;1.73;;;1.30;;
68365;SDS011;55283;51.466;5.478;2022-07-29T05:54:27;2.92;;;1.60;;
68365;SDS011;55283;51.466;5.478;2022-07-29T05:56:55;3.10;;;1.33;;
68365;SDS011;55283;51.466;5.478;2022-07-29T05:59:21;2.95;;;1.20;;
68365;SDS011;55283;51.466;5.478;2022-07-29T06:01:46;3.13;;;1.40;;
68365;SDS011;55283;51.466;5.478;2022-07-29T06:04:12;6.87;;;1.40;;
68365;SDS011;55283;51.466;5.478;2022-07-29T06:06:37;3.50;;;1.50;;
68365;SDS011;55283;51.466;5.478;2022-07-29T06:09:03;4.90;;;1.70;;
68365;SDS011;55283;51.466;5.478;2022-07-29T06:11:31;1.50;;;1.40;;
68365;SDS011;55283;51.466;5.478;2022-07-29T06:13:56;3.15;;;1.45;;
68365;SDS011;55283;51.466;5.478;2022-07-29T06:16:22;4.50;;;1.40;;
68365;SDS011;55283;51.466;5.478;2022-07-29T06:18:47;3.10;;;1.40;;
68365;SDS011;55283;51.466;5.478;2022-07-29T06:21:12;5.60;;;1.50;;
68365;SDS011;55283;51.466;5.478;2022-07-29T06:23:38;7.10;;;1.70;;
68365;SDS011;55283;51.466;5.478;2022-07-29T06:26:04;5.88;;;2.10;;
68365;SDS011;55283;51.466;5.478;2022-07-29T06:28:33;5.05;;;2.00;;
68365;SDS011;55283;51.466;5.478;2022-07-29T06:31:01;5.47;;;2.10;;
68365;SDS011;55283;51.466;5.478;2022-07-29T06:33:26;3.72;;;2.17;;
68365;SDS011;55283;51.466;5.478;2022-07-29T06:35:52;6.20;;;2.13;;
68365;SDS011;55283;51.466;5.478;2022-07-29T06:38:17;7.07;;;2.40;;
68365;SDS011;55283;51.466;5.478;2022-07-29T06:40:43;7.17;;;2.40;;
68365;SDS011;55283;51.466;5.478;2022-07-29T06:43:33;6.15;;;2.25;;
68365;SDS011;55283;51.466;5.478;2022-07-29T06:46:10;4.50;;;2.33;;
68365;SDS011;55283;51.466;5.478;2022-07-29T06:48:42;4.25;;;2.30;;
68365;SDS011;55283;51.466;5.478;2022-07-29T06:51:11;7.50;;;2.87;;
68365;SDS011;55283;51.466;5.478;2022-07-29T06:53:37;4.03;;;2.33;;
68365;SDS011;55283;51.466;5.478;2022-07-29T06:56:04;4.43;;;2.40;;
68365;SDS011;55283;51.466;5.478;2022-07-29T06:58:31;8.53;;;2.50;;
68365;SDS011;55283;51.466;5.478;2022-07-29T07:00:57;4.05;;;2.33;;
68365;SDS011;55283;51.466;5.478;2022-07-29T07:03:28;5.65;;;2.25;;
68365;SDS011;55283;51.466;5.478;2022-07-29T07:06:00;4.90;;;2.47;;
68365;SDS011;55283;51.466;5.478;2022-07-29T07:08:26;4.47;;;2.30;;
68365;SDS011;55283;51.466;5.478;2022-07-29T07:10:51;4.40;;;2.43;;
68365;SDS011;55283;51.466;5.478;2022-07-29T07:13:18;4.22;;;2.33;;
68365;SDS011;55283;51.466;5.478;2022-07-29T07:15:45;4.78;;;2.47;;
68365;SDS011;55283;51.466;5.478;2022-07-29T07:18:12;6.80;;;2.47;;
68365;SDS011;55283;51.466;5.478;2022-07-29T07:20:38;7.32;;;2.40;;
68365;SDS011;55283;51.466;5.478;2022-07-29T07:23:03;3.73;;;2.30;;
68365;SDS011;55283;51.466;5.478;2022-07-29T07:25:29;5.28;;;2.50;;
68365;SDS011;55283;51.466;5.478;2022-07-29T07:27:55;6.28;;;2.78;;
68365;SDS011;55283;51.466;5.478;2022-07-29T07:30:23;5.73;;;2.70;;
68365;SDS011;55283;51.466;5.478;2022-07-29T07:32:49;5.13;;;2.67;;
68365;SDS011;55283;51.466;5.478;2022-07-29T07:35:14;7.03;;;3.17;;
68365;SDS011;55283;51.466;5.478;2022-07-29T07:37:39;6.67;;;2.93;;
68365;SDS011;55283;51.466;5.478;2022-07-29T07:40:08;5.25;;;2.80;;
68365;SDS011;55283;51.466;5.478;2022-07-29T07:42:36;5.17;;;3.00;;
68365;SDS011;55283;51.466;5.478;2022-07-29T07:45:05;5.72;;;3.00;;
68365;SDS011;55283;51.466;5.478;2022-07-29T07:47:33;5.78;;;2.90;;
68365;SDS011;55283;51.466;5.478;2022-07-29T07:49:59;7.90;;;3.00;;
68365;SDS011;55283;51.466;5.478;2022-07-29T07:52:25;7.53;;;3.30;;
68365;SDS011;55283;51.466;5.478;2022-07-29T07:54:50;8.57;;;3.77;;
68365;SDS011;55283;51.466;5.478;2022-07-29T07:57:16;7.20;;;3.47;;
68365;SDS011;55283;51.466;5.478;2022-07-29T07:59:42;4.85;;;2.92;;
68365;SDS011;55283;51.466;5.478;2022-07-29T08:02:07;5.33;;;2.90;;
68365;SDS011;55283;51.466;5.478;2022-07-29T08:04:33;3.93;;;2.57;;
68365;SDS011;55283;51.466;5.478;2022-07-29T08:06:59;5.07;;;2.45;;
68365;SDS011;55283;51.466;5.478;2022-07-29T08:09:25;5.33;;;2.60;;
68365;SDS011;55283;51.466;5.478;2022-07-29T08:11:52;5.47;;;2.30;;
68365;SDS011;55283;51.466;5.478;2022-07-29T08:14:17;5.53;;;2.35;;
68365;SDS011;55283;51.466;5.478;2022-07-29T08:16:43;5.80;;;2.40;;
68365;SDS011;55283;51.466;5.478;2022-07-29T08:19:09;5.32;;;2.40;;
68365;SDS011;55283;51.466;5.478;2022-07-29T08:21:35;6.70;;;2.60;;
68365;SDS011;55283;51.466;5.478;2022-07-29T08:24:00;3.70;;;2.20;;
68365;SDS011;55283;51.466;5.478;2022-07-29T08:26:44;6.00;;;2.40;;
68365;SDS011;55283;51.466;5.478;2022-07-29T08:29:10;7.35;;;2.40;;
68365;SDS011;55283;51.466;5.478;2022-07-29T08:31:36;8.37;;;2.40;;
68365;SDS011;55283;51.466;5.478;2022-07-29T08:34:03;4.65;;;2.28;;
68365;SDS011;55283;51.466;5.478;2022-07-29T08:36:32;7.15;;;2.20;;
68365;SDS011;55283;51.466;5.478;2022-07-29T08:39:00;5.47;;;2.20;;
68365;SDS011;55283;51.466;5.478;2022-07-29T08:41:28;6.28;;;2.03;;
68365;SDS011;55283;51.466;5.478;2022-07-29T08:43:53;4.43;;;2.00;;
68365;SDS011;55283;51.466;5.478;2022-07-29T08:46:22;8.20;;;2.50;;
68365;SDS011;55283;51.466;5.478;2022-07-29T08:48:50;5.40;;;2.17;;
68365;SDS011;55283;51.466;5.478;2022-07-29T08:51:17;5.25;;;2.50;;
68365;SDS011;55283;51.466;5.478;2022-07-29T08:53:44;5.40;;;2.30;;
68365;SDS011;55283;51.466;5.478;2022-07-29T08:56:13;4.32;;;2.05;;
68365;SDS011;55283;51.466;5.478;2022-07-29T08:58:41;4.20;;;1.90;;
68365;SDS011;55283;51.466;5.478;2022-07-29T09:01:07;4.27;;;1.80;;
68365;SDS011;55283;51.466;5.478;2022-07-29T09:03:37;6.43;;;1.90;;
68365;SDS011;55283;51.466;5.478;2022-07-29T09:06:05;4.63;;;1.88;;
68365;SDS011;55283;51.466;5.478;2022-07-29T09:08:31;3.77;;;1.73;;
68365;SDS011;55283;51.466;5.478;2022-07-29T09:10:58;1.60;;;1.50;;
68365;SDS011;55283;51.466;5.478;2022-07-29T09:13:26;3.78;;;1.55;;
68365;SDS011;55283;51.466;5.478;2022-07-29T09:15:54;4.00;;;1.97;;
68365;SDS011;55283;51.466;5.478;2022-07-29T09:18:42;3.75;;;1.60;;
68365;SDS011;55283;51.466;5.478;2022-07-29T09:21:12;2.77;;;1.60;;
68365;SDS011;55283;51.466;5.478;2022-07-29T09:24:10;3.08;;;1.50;;
68365;SDS011;55283;51.466;5.478;2022-07-29T09:26:40;3.30;;;1.50;;
68365;SDS011;55283;51.466;5.478;2022-07-29T09:29:08;2.87;;;1.53;;
68365;SDS011;55283;51.466;5.478;2022-07-29T09:31:36;4.18;;;1.65;;
68365;SDS011;55283;51.466;5.478;2022-07-29T09:34:03;5.10;;;1.70;;
68365;SDS011;55283;51.466;5.478;2022-07-29T09:36:30;3.17;;;1.70;;
68365;SDS011;55283;51.466;5.478;2022-07-29T09:39:02;1.70;;;1.40;;
68365;SDS011;55283;51.466;5.478;2022-07-29T09:41:28;2.72;;;1.60;;
68365;SDS011;55283;51.466;5.478;2022-07-29T09:43:57;2.10;;;1.63;;
68365;SDS011;55283;51.466;5.478;2022-07-29T09:46:25;2.22;;;1.60;;
68365;SDS011;55283;51.466;5.478;2022-07-29T09:49:09;2.28;;;1.40;;
68365;SDS011;55283;51.466;5.478;2022-07-29T09:51:38;2.50;;;1.47;;
68365;SDS011;55283;51.466;5.478;2022-07-29T09:54:22;3.05;;;1.55;;
68365;SDS011;55283;51.466;5.478;2022-07-29T09:56:51;3.47;;;1.55;;
68365;SDS011;55283;51.466;5.478;2022-07-29T09:59:17;5.67;;;1.80;;
68365;SDS011;55283;51.466;5.478;2022-07-29T10:01:42;5.18;;;1.70;;
68365;SDS011;55283;51.466;5.478;2022-07-29T10:04:08;2.10;;;1.60;;
68365;SDS011;55283;51.466;5.478;2022-07-29T10:06:34;2.30;;;1.50;;
68365;SDS011;55283;51.466;5.478;2022-07-29T10:09:09;2.33;;;1.60;;
68365;SDS011;55283;51.466;5.478;2022-07-29T10:11:40;3.05;;;1.60;;
68365;SDS011;55283;51.466;5.478;2022-07-29T10:14:05;3.13;;;1.50;;
68365;SDS011;55283;51.466;5.478;2022-07-29T10:16:30;2.40;;;1.50;;
68365;SDS011;55283;51.466;5.478;2022-07-29T10:18:59;2.37;;;1.40;;
68365;SDS011;55283;51.466;5.478;2022-07-29T10:21:26;2.17;;;1.58;;
68365;SDS011;55283;51.466;5.478;2022-07-29T10:23:54;2.33;;;1.50;;
68365;SDS011;55283;51.466;5.478;2022-07-29T10:26:22;2.63;;;1.60;;
68365;SDS011;55283;51.466;5.478;2022-07-29T10:28:48;2.97;;;1.60;;
68365;SDS011;55283;51.466;5.478;2022-07-29T10:31:15;4.20;;;1.60;;
68365;SDS011;55283;51.466;5.478;2022-07-29T10:34:13;5.10;;;1.70;;
68365;SDS011;55283;51.466;5.478;2022-07-29T10:37:01;2.95;;;1.50;;
68365;SDS011;55283;51.466;5.478;2022-07-29T10:42:20;2.53;;;1.60;;
68365;SDS011;55283;51.466;5.478;2022-07-29T10:44:51;2.63;;;1.50;;
68365;SDS011;55283;51.466;5.478;2022-07-29T10:47:24;3.88;;;1.60;;
68365;SDS011;55283;51.466;5.478;2022-07-29T10:50:01;2.90;;;1.60;;
68365;SDS011;55283;51.466;5.478;2022-07-29T10:52:52;2.55;;;1.48;;
68365;SDS011;55283;51.466;5.478;2022-07-29T10:55:30;3.10;;;1.67;;
68365;SDS011;55283;51.466;5.478;2022-07-29T10:58:11;3.00;;;1.73;;
68365;SDS011;55283;51.466;5.478;2022-07-29T11:00:49;4.10;;;1.73;;
68365;SDS011;55283;51.466;5.478;2022-07-29T11:06:05;2.23;;;1.60;;
68365;SDS011;55283;51.466;5.478;2022-07-29T11:08:31;3.35;;;1.63;;
68365;SDS011;55283;51.466;5.478;2022-07-29T11:11:39;2.95;;;1.65;;
68365;SDS011;55283;51.466;5.478;2022-07-29T11:13:52;3.00;;;1.60;;
68365;SDS011;55283;51.466;5.478;2022-07-29T11:16:21;3.05;;;1.83;;
68365;SDS011;55283;51.466;5.478;2022-07-29T11:21:38;3.50;;;1.97;;
68365;SDS011;55283;51.466;5.478;2022-07-29T11:24:14;2.95;;;1.80;;
68365;SDS011;55283;51.466;5.478;2022-07-29T11:27:06;3.17;;;1.73;;
68365;SDS011;55283;51.466;5.478;2022-07-29T11:29:40;2.83;;;1.60;;
68365;SDS011;55283;51.466;5.478;2022-07-29T11:32:12;2.47;;;1.55;;
68365;SDS011;55283;51.466;5.478;2022-07-29T11:34:44;3.45;;;1.67;;
68365;SDS011;55283;51.466;5.478;2022-07-29T11:39:40;2.13;;;1.50;;
68365;SDS011;55283;51.466;5.478;2022-07-29T11:47:31;2.13;;;1.77;;
68365;SDS011;55283;51.466;5.478;2022-07-29T11:49:58;3.47;;;1.70;;
68365;SDS011;55283;51.466;5.478;2022-07-29T11:52:32;3.17;;;1.70;;
68365;SDS011;55283;51.466;5.478;2022-07-29T11:55:02;3.50;;;1.70;;
68365;SDS011;55283;51.466;5.478;2022-07-29T11:57:31;2.95;;;1.60;;
68365;SDS011;55283;51.466;5.478;2022-07-29T12:00:02;3.88;;;1.65;;
68365;SDS011;55283;51.466;5.478;2022-07-29T12:02:39;3.20;;;1.80;;
68365;SDS011;55283;51.466;5.478;2022-07-29T12:05:07;2.90;;;1.60;;
68365;SDS011;55283;51.466;5.478;2022-07-29T12:07:33;3.25;;;1.60;;
68365;SDS011;55283;51.466;5.478;2022-07-29T12:09:59;2.85;;;1.60;;
68365;SDS011;55283;51.466;5.478;2022-07-29T12:12:25;3.33;;;1.60;;
68365;SDS011;55283;51.466;5.478;2022-07-29T12:14:51;2.78;;;1.52;;
68365;SDS011;55283;51.466;5.478;2022-07-29T12:17:30;2.77;;;1.70;;
68365;SDS011;55283;51.466;5.478;2022-07-29T12:20:02;2.40;;;1.60;;
68365;SDS011;55283;51.466;5.478;2022-07-29T12:22:34;2.55;;;1.45;;
68365;SDS011;55283;51.466;5.478;2022-07-29T12:25:06;2.87;;;1.53;;
68365;SDS011;55283;51.466;5.478;2022-07-29T12:27:37;2.17;;;1.50;;
68365;SDS011;55283;51.466;5.478;2022-07-29T12:30:08;3.65;;;1.60;;
68365;SDS011;55283;51.466;5.478;2022-07-29T12:32:41;3.42;;;1.63;;
68365;SDS011;55283;51.466;5.478;2022-07-29T12:35:12;2.10;;;1.70;;
68365;SDS011;55283;51.466;5.478;2022-07-29T12:37:41;3.47;;;1.60;;
68365;SDS011;55283;51.466;5.478;2022-07-29T12:40:09;2.63;;;1.60;;
68365;SDS011;55283;51.466;5.478;2022-07-29T12:42:37;3.90;;;1.70;;
68365;SDS011;55283;51.466;5.478;2022-07-29T12:45:06;2.83;;;1.55;;
68365;SDS011;55283;51.466;5.478;2022-07-29T12:47:50;3.33;;;1.83;;
68365;SDS011;55283;51.466;5.478;2022-07-29T12:50:16;1.93;;;1.57;;
68365;SDS011;55283;51.466;5.478;2022-07-29T12:52:43;2.38;;;1.63;;
68365;SDS011;55283;51.466;5.478;2022-07-29T12:55:09;1.80;;;1.52;;
68365;SDS011;55283;51.466;5.478;2022-07-29T12:57:44;3.23;;;1.80;;
68365;SDS011;55283;51.466;5.478;2022-07-29T13:00:15;3.67;;;1.60;;
68365;SDS011;55283;51.466;5.478;2022-07-29T13:02:42;2.93;;;1.80;;
68365;SDS011;55283;51.466;5.478;2022-07-29T13:05:10;2.58;;;1.50;;
68365;SDS011;55283;51.466;5.478;2022-07-29T13:07:37;2.47;;;1.60;;
68365;SDS011;55283;51.466;5.478;2022-07-29T13:10:10;2.17;;;1.50;;
68365;SDS011;55283;51.466;5.478;2022-07-29T13:12:37;2.33;;;1.50;;
68365;SDS011;55283;51.466;5.478;2022-07-29T13:15:15;3.25;;;1.70;;
68365;SDS011;55283;51.466;5.478;2022-07-29T13:17:43;2.87;;;1.63;;
68365;SDS011;55283;51.466;5.478;2022-07-29T13:20:09;2.50;;;1.50;;
68365;SDS011;55283;51.466;5.478;2022-07-29T13:22:40;2.10;;;1.60;;
68365;SDS011;55283;51.466;5.478;2022-07-29T13:25:07;2.80;;;1.60;;
68365;SDS011;55283;51.466;5.478;2022-07-29T13:27:35;2.30;;;1.60;;
68365;SDS011;55283;51.466;5.478;2022-07-29T13:30:03;2.63;;;1.60;;
68365;SDS011;55283;51.466;5.478;2022-07-29T13:32:30;2.85;;;1.70;;
68365;SDS011;55283;51.466;5.478;2022-07-29T13:35:00;1.93;;;1.50;;
68365;SDS011;55283;51.466;5.478;2022-07-29T13:37:27;2.90;;;1.65;;
68365;SDS011;55283;51.466;5.478;2022-07-29T13:39:54;2.88;;;1.90;;
68365;SDS011;55283;51.466;5.478;2022-07-29T13:42:21;2.03;;;1.50;;
68365;SDS011;55283;51.466;5.478;2022-07-29T13:44:50;4.30;;;1.80;;
68365;SDS011;55283;51.466;5.478;2022-07-29T13:47:16;1.70;;;1.58;;
68365;SDS011;55283;51.466;5.478;2022-07-29T13:49:42;2.10;;;1.63;;
68365;SDS011;55283;51.466;5.478;2022-07-29T13:52:08;3.00;;;1.60;;
68365;SDS011;55283;51.466;5.478;2022-07-29T13:54:34;2.13;;;1.50;;
68365;SDS011;55283;51.466;5.478;2022-07-29T13:57:02;3.15;;;1.60;;
68365;SDS011;55283;51.466;5.478;2022-07-29T13:59:31;2.40;;;1.60;;
68365;SDS011;55283;51.466;5.478;2022-07-29T14:01:56;1.53;;;1.43;;
68365;SDS011;55283;51.466;5.478;2022-07-29T14:04:22;2.90;;;1.50;;
68365;SDS011;55283;51.466;5.478;2022-07-29T14:06:53;2.00;;;1.70;;
68365;SDS011;55283;51.466;5.478;2022-07-29T14:09:19;3.05;;;1.70;;
68365;SDS011;55283;51.466;5.478;2022-07-29T14:11:44;4.77;;;1.70;;
68365;SDS011;55283;51.466;5.478;2022-07-29T14:14:11;4.22;;;1.77;;
68365;SDS011;55283;51.466;5.478;2022-07-29T14:16:36;2.73;;;1.50;;
68365;SDS011;55283;51.466;5.478;2022-07-29T14:19:05;2.40;;;1.67;;
68365;SDS011;55283;51.466;5.478;2022-07-29T14:21:30;2.40;;;1.73;;
68365;SDS011;55283;51.466;5.478;2022-07-29T14:23:55;3.93;;;1.73;;
68365;SDS011;55283;51.466;5.478;2022-07-29T14:26:21;4.05;;;1.90;;
68365;SDS011;55283;51.466;5.478;2022-07-29T14:28:47;3.43;;;1.80;;
68365;SDS011;55283;51.466;5.478;2022-07-29T14:31:13;3.17;;;1.80;;
68365;SDS011;55283;51.466;5.478;2022-07-29T14:33:39;3.28;;;1.83;;
68365;SDS011;55283;51.466;5.478;2022-07-29T14:36:04;3.93;;;1.83;;
68365;SDS011;55283;51.466;5.478;2022-07-29T14:38:34;3.40;;;1.80;;
68365;SDS011;55283;51.466;5.478;2022-07-29T14:41:00;2.97;;;1.67;;
68365;SDS011;55283;51.466;5.478;2022-07-29T14:43:25;3.03;;;1.70;;
68365;SDS011;55283;51.466;5.478;2022-07-29T14:45:51;3.63;;;1.60;;
68365;SDS011;55283;51.466;5.478;2022-07-29T14:48:16;3.27;;;1.80;;
68365;SDS011;55283;51.466;5.478;2022-07-29T14:50:42;4.18;;;1.80;;
68365;SDS011;55283;51.466;5.478;2022-07-29T14:53:07;2.63;;;1.70;;
68365;SDS011;55283;51.466;5.478;2022-07-29T14:55:33;4.83;;;2.00;;
68365;SDS011;55283;51.466;5.478;2022-07-29T14:57:58;4.35;;;1.80;;
68365;SDS011;55283;51.466;5.478;2022-07-29T15:00:24;3.57;;;1.90;;
68365;SDS011;55283;51.466;5.478;2022-07-29T15:02:50;5.28;;;1.88;;
68365;SDS011;55283;51.466;5.478;2022-07-29T15:05:18;3.57;;;2.13;;
68365;SDS011;55283;51.466;5.478;2022-07-29T15:07:46;8.18;;;2.60;;
68365;SDS011;55283;51.466;5.478;2022-07-29T15:10:12;6.70;;;2.47;;
68365;SDS011;55283;51.466;5.478;2022-07-29T15:12:37;5.07;;;2.10;;
68365;SDS011;55283;51.466;5.478;2022-07-29T15:15:03;4.43;;;2.00;;
68365;SDS011;55283;51.466;5.478;2022-07-29T15:17:28;6.40;;;2.20;;
68365;SDS011;55283;51.466;5.478;2022-07-29T15:19:53;5.60;;;2.20;;
68365;SDS011;55283;51.466;5.478;2022-07-29T15:22:19;6.03;;;2.28;;
68365;SDS011;55283;51.466;5.478;2022-07-29T15:24:45;4.37;;;2.10;;
68365;SDS011;55283;51.466;5.478;2022-07-29T15:27:10;4.67;;;2.00;;
68365;SDS011;55283;51.466;5.478;2022-07-29T15:29:44;4.97;;;2.20;;